sensor_id;sensor_type;location;lat;lon;timestamp;pressure;altitude;pressure_sealevel;temperature;humidity
17593;BME280;8915;51.760;14.300;2023-05-01T00:00:46;101511.34;;;3.47;76.97
17593;BME280;8915;51.760;14.300;2023-05-01T00:03:13;101510.56;;;3.51;75.43
17593;BME280;8915;51.760;14.300;2023-05-01T00:05:39;101509.03;;;3.55;74.71
17593;BME280;8915;51.760;14.300;2023-05-01T00:08:05;101502.50;;;3.58;74.59
17593;BME280;8915;51.760;14.300;2023-05-01T00:10:34;101509.06;;;3.60;75.11
17593;BME280;8915;51.760;14.300;2023-05-01T00:13:01;101505.13;;;3.63;75.22
17593;BME280;8915;51.760;14.300;2023-05-01T00:15:28;101505.66;;;3.65;74.49
17593;BME280;8915;51.760;14.300;2023-05-01T00:17:54;101502.78;;;3.66;74.33
17593;BME280;8915;51.760;14.300;2023-05-01T00:20:21;101501.50;;;3.69;72.43
17593;BME280;8915;51.760;14.300;2023-05-01T00:22:47;101505.94;;;3.73;72.64
17593;BME280;8915;51.760;14.300;2023-05-01T00:25:14;101506.47;;;3.75;72.08
17593;BME280;8915;51.760;14.300;2023-05-01T00:27:40;101498.91;;;3.79;71.42
17593;BME280;8915;51.760;14.300;2023-05-01T00:30:09;101501.53;;;3.84;71.59
17593;BME280;8915;51.760;14.300;2023-05-01T00:32:36;101503.63;;;3.87;71.89
17593;BME280;8915;51.760;14.300;2023-05-01T00:35:03;101498.94;;;3.89;71.41
17593;BME280;8915;51.760;14.300;2023-05-01T00:37:30;101499.19;;;3.92;70.98
17593;BME280;8915;51.760;14.300;2023-05-01T00:39:57;101494.75;;;3.93;71.14
17593;BME280;8915;51.760;14.300;2023-05-01T00:42:23;101487.69;;;3.93;71.07
17593;BME280;8915;51.760;14.300;2023-05-01T00:44:50;101494.22;;;3.96;70.26
17593;BME280;8915;51.760;14.300;2023-05-01T00:47:17;101501.81;;;3.97;71.01
17593;BME280;8915;51.760;14.300;2023-05-01T00:49:45;101497.38;;;3.98;70.79
17593;BME280;8915;51.760;14.300;2023-05-01T00:52:12;101496.59;;;3.97;70.97
17593;BME280;8915;51.760;14.300;2023-05-01T00:54:39;101492.13;;;3.98;70.54
17593;BME280;8915;51.760;14.300;2023-05-01T00:57:06;101491.13;;;3.99;72.52
17593;BME280;8915;51.760;14.300;2023-05-01T00:59:33;101498.94;;;3.99;74.29
17593;BME280;8915;51.760;14.300;2023-05-01T01:02:00;101482.22;;;3.95;74.54
17593;BME280;8915;51.760;14.300;2023-05-01T01:04:28;101483.53;;;3.92;75.26
17593;BME280;8915;51.760;14.300;2023-05-01T01:07:02;101494.47;;;3.89;76.00
17593;BME280;8915;51.760;14.300;2023-05-01T01:09:37;101490.84;;;3.85;76.53
17593;BME280;8915;51.760;14.300;2023-05-01T01:12:12;101492.38;;;3.81;77.43
17593;BME280;8915;51.760;14.300;2023-05-01T01:14:46;101491.84;;;3.74;77.44
17593;BME280;8915;51.760;14.300;2023-05-01T01:17:20;101491.56;;;3.71;78.45
17593;BME280;8915;51.760;14.300;2023-05-01T01:20:13;101496.78;;;3.66;78.54
17593;BME280;8915;51.760;14.300;2023-05-01T01:22:45;101482.38;;;3.58;78.94
17593;BME280;8915;51.760;14.300;2023-05-01T01:25:32;101486.81;;;3.53;78.59
17593;BME280;8915;51.760;14.300;2023-05-01T01:28:33;101484.44;;;3.46;79.26
17593;BME280;8915;51.760;14.300;2023-05-01T01:31:13;101492.78;;;3.43;79.53
17593;BME280;8915;51.760;14.300;2023-05-01T01:33:54;101483.09;;;3.34;79.58
17593;BME280;8915;51.760;14.300;2023-05-01T01:36:33;101482.81;;;3.30;79.93
17593;BME280;8915;51.760;14.300;2023-05-01T01:39:08;101487.50;;;3.23;79.88
17593;BME280;8915;51.760;14.300;2023-05-01T01:41:35;101475.75;;;3.21;80.33
17593;BME280;8915;51.760;14.300;2023-05-01T01:44:08;101479.34;;;3.15;80.37
17593;BME280;8915;51.760;14.300;2023-05-01T01:46:38;101481.69;;;3.11;80.70
17593;BME280;8915;51.760;14.300;2023-05-01T01:49:12;101479.31;;;3.05;81.19
17593;BME280;8915;51.760;14.300;2023-05-01T01:51:40;101473.03;;;3.01;81.28
17593;BME280;8915;51.760;14.300;2023-05-01T01:54:08;101472.78;;;2.97;81.13
17593;BME280;8915;51.760;14.300;2023-05-01T01:56:36;101476.91;;;2.93;81.30
17593;BME280;8915;51.760;14.300;2023-05-01T01:59:05;101477.16;;;2.92;81.78
17593;BME280;8915;51.760;14.300;2023-05-01T02:01:33;101477.41;;;2.90;82.27
17593;BME280;8915;51.760;14.300;2023-05-01T02:04:00;101464.34;;;2.85;81.81
17593;BME280;8915;51.760;14.300;2023-05-01T02:06:30;101468.72;;;2.75;81.21
17593;BME280;8915;51.760;14.300;2023-05-01T02:08:58;101459.31;;;2.69;80.47
17593;BME280;8915;51.760;14.300;2023-05-01T02:11:26;101466.84;;;2.70;81.12
17593;BME280;8915;51.760;14.300;2023-05-01T02:13:53;101465.28;;;2.69;82.55
17593;BME280;8915;51.760;14.300;2023-05-01T02:16:21;101456.69;;;2.69;82.43
17593;BME280;8915;51.760;14.300;2023-05-01T02:18:50;101454.81;;;2.64;82.74
17593;BME280;8915;51.760;14.300;2023-05-01T02:21:18;101456.41;;;2.65;83.14
17593;BME280;8915;51.760;14.300;2023-05-01T02:23:46;101449.13;;;2.67;82.98
17593;BME280;8915;51.760;14.300;2023-05-01T02:26:15;101445.72;;;2.67;84.01
17593;BME280;8915;51.760;14.300;2023-05-01T02:28:42;101450.38;;;2.60;83.53
17593;BME280;8915;51.760;14.300;2023-05-01T02:31:08;101453.22;;;2.58;83.22
17593;BME280;8915;51.760;14.300;2023-05-01T02:33:35;101453.22;;;2.58;83.72
17593;BME280;8915;51.760;14.300;2023-05-01T02:36:01;101446.41;;;2.52;83.25
17593;BME280;8915;51.760;14.300;2023-05-01T02:38:29;101439.91;;;2.55;83.88
17593;BME280;8915;51.760;14.300;2023-05-01T02:40:59;101436.47;;;2.49;84.17
17593;BME280;8915;51.760;14.300;2023-05-01T02:43:27;101435.16;;;2.47;83.92
17593;BME280;8915;51.760;14.300;2023-05-01T02:45:56;101433.34;;;2.47;83.80
17593;BME280;8915;51.760;14.300;2023-05-01T02:48:26;101422.94;;;2.47;84.18
17593;BME280;8915;51.760;14.300;2023-05-01T02:50:54;101415.06;;;2.42;84.11
17593;BME280;8915;51.760;14.300;2023-05-01T02:53:21;101419.19;;;2.33;83.60
17593;BME280;8915;51.760;14.300;2023-05-01T02:55:51;101416.03;;;2.31;83.53
17593;BME280;8915;51.760;14.300;2023-05-01T02:58:19;101412.91;;;2.34;84.13
17593;BME280;8915;51.760;14.300;2023-05-01T03:00:47;101412.69;;;2.36;84.08
17593;BME280;8915;51.760;14.300;2023-05-01T03:03:14;101403.53;;;2.33;84.61
17593;BME280;8915;51.760;14.300;2023-05-01T03:05:41;101408.22;;;2.31;84.83
17593;BME280;8915;51.760;14.300;2023-05-01T03:08:07;101408.44;;;2.25;84.67
17593;BME280;8915;51.760;14.300;2023-05-01T03:10:35;101404.75;;;2.21;84.78
17593;BME280;8915;51.760;14.300;2023-05-01T03:13:04;101403.72;;;2.22;84.94
17593;BME280;8915;51.760;14.300;2023-05-01T03:15:32;101401.88;;;2.17;84.63
17593;BME280;8915;51.760;14.300;2023-05-01T03:17:59;101402.66;;;2.18;85.24
17593;BME280;8915;51.760;14.300;2023-05-01T03:20:25;101402.66;;;2.18;85.02
17593;BME280;8915;51.760;14.300;2023-05-01T03:22:51;101401.59;;;2.14;84.99
17593;BME280;8915;51.760;14.300;2023-05-01T03:25:18;101394.53;;;2.09;84.77
17593;BME280;8915;51.760;14.300;2023-05-01T03:27:44;101395.00;;;2.06;85.23
17593;BME280;8915;51.760;14.300;2023-05-01T03:30:11;101386.72;;;2.09;85.25
17593;BME280;8915;51.760;14.300;2023-05-01T03:32:41;101385.63;;;2.05;84.99
17593;BME280;8915;51.760;14.300;2023-05-01T03:35:15;101384.06;;;2.04;85.10
17593;BME280;8915;51.760;14.300;2023-05-01T03:37:41;101381.72;;;2.03;85.07
17593;BME280;8915;51.760;14.300;2023-05-01T03:40:11;101375.97;;;2.06;85.51
17593;BME280;8915;51.760;14.300;2023-05-01T03:43:03;101371.28;;;2.03;85.57
17593;BME280;8915;51.760;14.300;2023-05-01T03:45:31;101381.72;;;2.03;85.61
17593;BME280;8915;51.760;14.300;2023-05-01T03:47:59;101379.63;;;2.05;85.77
17593;BME280;8915;51.760;14.300;2023-05-01T03:50:26;101382.47;;;2.03;85.70
17593;BME280;8915;51.760;14.300;2023-05-01T03:52:52;101374.94;;;2.02;85.54
17593;BME280;8915;51.760;14.300;2023-05-01T03:55:19;101374.13;;;2.01;85.56
17593;BME280;8915;51.760;14.300;2023-05-01T03:57:46;101373.84;;;1.98;84.97
17593;BME280;8915;51.760;14.300;2023-05-01T04:00:12;101372.56;;;2.00;84.99
17593;BME280;8915;51.760;14.300;2023-05-01T04:02:42;101369.19;;;2.00;84.12
17593;BME280;8915;51.760;14.300;2023-05-01T04:05:14;101368.44;;;2.04;83.02
17593;BME280;8915;51.760;14.300;2023-05-01T04:07:46;101375.78;;;2.12;83.05
17593;BME280;8915;51.760;14.300;2023-05-01T04:10:13;101363.59;;;2.18;81.67
17593;BME280;8915;51.760;14.300;2023-05-01T04:12:48;101365.22;;;2.29;81.00
17593;BME280;8915;51.760;14.300;2023-05-01T04:15:14;101366.31;;;2.38;80.69
17593;BME280;8915;51.760;14.300;2023-05-01T04:17:41;101358.28;;;2.49;80.40
17593;BME280;8915;51.760;14.300;2023-05-01T04:20:09;101362.25;;;2.62;80.18
17593;BME280;8915;51.760;14.300;2023-05-01T04:22:38;101363.59;;;2.69;79.19
17593;BME280;8915;51.760;14.300;2023-05-01T04:25:05;101356.63;;;2.80;79.21
17593;BME280;8915;51.760;14.300;2023-05-01T04:27:31;101353.28;;;2.94;78.03
17593;BME280;8915;51.760;14.300;2023-05-01T04:29:58;101359.03;;;3.06;77.94
17593;BME280;8915;51.760;14.300;2023-05-01T04:32:24;101358.81;;;3.18;77.31
17593;BME280;8915;51.760;14.300;2023-05-01T04:34:51;101352.31;;;3.30;77.09
17593;BME280;8915;51.760;14.300;2023-05-01T04:37:17;101356.78;;;3.45;76.52
17593;BME280;8915;51.760;14.300;2023-05-01T04:39:45;101343.47;;;3.56;75.87
17593;BME280;8915;51.760;14.300;2023-05-01T04:42:12;101341.13;;;3.70;75.32
17593;BME280;8915;51.760;14.300;2023-05-01T04:44:39;101341.13;;;3.80;74.87
17593;BME280;8915;51.760;14.300;2023-05-01T04:47:06;101338.78;;;3.93;73.79
17593;BME280;8915;51.760;14.300;2023-05-01T04:49:33;101346.09;;;4.01;73.83
17593;BME280;8915;51.760;14.300;2023-05-01T04:52:00;101337.69;;;4.14;73.29
17593;BME280;8915;51.760;14.300;2023-05-01T04:54:36;101334.28;;;4.24;73.43
17593;BME280;8915;51.760;14.300;2023-05-01T04:57:04;101334.78;;;4.36;72.62
17593;BME280;8915;51.760;14.300;2023-05-01T04:59:30;101337.38;;;4.46;73.31
17593;BME280;8915;51.760;14.300;2023-05-01T05:01:57;101337.34;;;4.56;71.61
17593;BME280;8915;51.760;14.300;2023-05-01T05:04:23;101333.91;;;4.65;72.13
17593;BME280;8915;51.760;14.300;2023-05-01T05:06:50;101330.75;;;4.73;71.55
17593;BME280;8915;51.760;14.300;2023-05-01T05:09:25;101338.81;;;4.82;72.00
17593;BME280;8915;51.760;14.300;2023-05-01T05:11:51;101335.88;;;4.88;71.71
17593;BME280;8915;51.760;14.300;2023-05-01T05:14:22;101336.88;;;4.97;71.23
17593;BME280;8915;51.760;14.300;2023-05-01T05:16:49;101334.22;;;5.07;70.96
17593;BME280;8915;51.760;14.300;2023-05-01T05:19:16;101334.69;;;5.14;70.05
17593;BME280;8915;51.760;14.300;2023-05-01T05:21:42;101338.31;;;5.23;69.23
17593;BME280;8915;51.760;14.300;2023-05-01T05:24:09;101340.59;;;5.35;69.43
17593;BME280;8915;51.760;14.300;2023-05-01T05:26:35;101334.50;;;5.44;68.18
17593;BME280;8915;51.760;14.300;2023-05-01T05:29:02;101332.63;;;5.55;68.77
17593;BME280;8915;51.760;14.300;2023-05-01T05:31:30;101331.75;;;5.64;68.61
17593;BME280;8915;51.760;14.300;2023-05-01T05:33:57;101329.03;;;5.74;68.36
17593;BME280;8915;51.760;14.300;2023-05-01T05:36:24;101323.47;;;5.86;68.23
17593;BME280;8915;51.760;14.300;2023-05-01T05:38:51;101326.25;;;5.99;67.11
17593;BME280;8915;51.760;14.300;2023-05-01T05:41:18;101320.91;;;6.09;66.06
17593;BME280;8915;51.760;14.300;2023-05-01T05:43:47;101319.72;;;6.20;66.88
17593;BME280;8915;51.760;14.300;2023-05-01T05:46:13;101312.03;;;6.29;66.42
17593;BME280;8915;51.760;14.300;2023-05-01T05:48:42;101322.41;;;6.39;66.18
17593;BME280;8915;51.760;14.300;2023-05-01T05:51:08;101321.50;;;6.48;66.79
17593;BME280;8915;51.760;14.300;2023-05-01T05:53:35;101316.38;;;6.62;65.85
17593;BME280;8915;51.760;14.300;2023-05-01T05:56:02;101325.97;;;6.71;65.44
17593;BME280;8915;51.760;14.300;2023-05-01T05:58:29;101327.13;;;6.84;64.88
17593;BME280;8915;51.760;14.300;2023-05-01T06:00:56;101322.72;;;6.98;65.79
17593;BME280;8915;51.760;14.300;2023-05-01T06:03:22;101325.53;;;7.06;65.81
17593;BME280;8915;51.760;14.300;2023-05-01T06:05:53;101322.44;;;7.18;66.43
17593;BME280;8915;51.760;14.300;2023-05-01T06:08:20;101315.22;;;7.28;66.44
17593;BME280;8915;51.760;14.300;2023-05-01T06:10:46;101315.34;;;7.37;64.98
17593;BME280;8915;51.760;14.300;2023-05-01T06:13:13;101316.00;;;7.47;65.55
17593;BME280;8915;51.760;14.300;2023-05-01T06:15:41;101315.81;;;7.57;65.23
17593;BME280;8915;51.760;14.300;2023-05-01T06:18:08;101315.63;;;7.67;65.64
17593;BME280;8915;51.760;14.300;2023-05-01T06:20:34;101310.03;;;7.74;66.06
17593;BME280;8915;51.760;14.300;2023-05-01T06:23:02;101312.69;;;7.87;64.98
17593;BME280;8915;51.760;14.300;2023-05-01T06:25:51;101313.50;;;8.01;64.90
17593;BME280;8915;51.760;14.300;2023-05-01T06:28:18;101310.09;;;8.14;66.14
17593;BME280;8915;51.760;14.300;2023-05-01T06:30:44;101309.84;;;8.29;63.41
17593;BME280;8915;51.760;14.300;2023-05-01T06:33:12;101319.59;;;8.42;64.17
17593;BME280;8915;51.760;14.300;2023-05-01T06:35:41;101313.84;;;8.54;63.51
17593;BME280;8915;51.760;14.300;2023-05-01T06:38:10;101319.09;;;8.67;64.81
17593;BME280;8915;51.760;14.300;2023-05-01T06:40:36;101314.38;;;8.78;64.51
17593;BME280;8915;51.760;14.300;2023-05-01T06:43:03;101312.81;;;8.90;64.62
17593;BME280;8915;51.760;14.300;2023-05-01T06:45:29;101299.31;;;9.05;63.92
17593;BME280;8915;51.760;14.300;2023-05-01T06:47:56;101308.44;;;9.21;63.30
17593;BME280;8915;51.760;14.300;2023-05-01T06:50:22;101300.63;;;9.38;63.84
17593;BME280;8915;51.760;14.300;2023-05-01T06:52:48;101302.91;;;9.53;63.75
17593;BME280;8915;51.760;14.300;2023-05-01T06:55:16;101298.66;;;9.66;63.23
17593;BME280;8915;51.760;14.300;2023-05-01T06:57:43;101297.19;;;9.82;62.34
17593;BME280;8915;51.760;14.300;2023-05-01T07:00:11;101298.69;;;9.96;61.45
17593;BME280;8915;51.760;14.300;2023-05-01T07:02:38;101307.50;;;10.14;63.26
17593;BME280;8915;51.760;14.300;2023-05-01T07:05:05;101292.94;;;10.25;59.87
17593;BME280;8915;51.760;14.300;2023-05-01T07:07:31;101297.94;;;10.35;59.27
17593;BME280;8915;51.760;14.300;2023-05-01T07:09:58;101295.94;;;10.49;61.99
17593;BME280;8915;51.760;14.300;2023-05-01T07:12:25;101290.06;;;10.60;59.60
17593;BME280;8915;51.760;14.300;2023-05-01T07:14:52;101285.28;;;10.71;61.26
17593;BME280;8915;51.760;14.300;2023-05-01T07:17:18;101284.81;;;10.86;61.39
17593;BME280;8915;51.760;14.300;2023-05-01T07:19:44;101285.44;;;11.00;62.00
17593;BME280;8915;51.760;14.300;2023-05-01T07:22:10;101281.09;;;11.12;59.49
17593;BME280;8915;51.760;14.300;2023-05-01T07:24:37;101283.13;;;11.24;61.58
17593;BME280;8915;51.760;14.300;2023-05-01T07:27:03;101277.38;;;11.39;59.06
17593;BME280;8915;51.760;14.300;2023-05-01T07:29:31;101275.00;;;11.54;57.83
17593;BME280;8915;51.760;14.300;2023-05-01T07:31:57;101274.81;;;11.68;59.08
17593;BME280;8915;51.760;14.300;2023-05-01T07:34:23;101267.94;;;11.84;60.01
17593;BME280;8915;51.760;14.300;2023-05-01T07:36:50;101270.06;;;11.99;56.29
17593;BME280;8915;51.760;14.300;2023-05-01T07:39:16;101275.31;;;12.16;57.54
17593;BME280;8915;51.760;14.300;2023-05-01T07:41:42;101264.94;;;12.31;59.04
17593;BME280;8915;51.760;14.300;2023-05-01T07:44:09;101270.66;;;12.42;56.94
17593;BME280;8915;51.760;14.300;2023-05-01T07:46:36;101271.16;;;12.56;58.77
17593;BME280;8915;51.760;14.300;2023-05-01T07:49:03;101263.94;;;12.65;56.90
17593;BME280;8915;51.760;14.300;2023-05-01T07:51:30;101260.59;;;12.76;53.17
17593;BME280;8915;51.760;14.300;2023-05-01T07:53:56;101261.75;;;12.87;54.59
17593;BME280;8915;51.760;14.300;2023-05-01T07:56:23;101262.16;;;12.98;53.04
17593;BME280;8915;51.760;14.300;2023-05-01T07:58:49;101257.69;;;13.10;55.25
17593;BME280;8915;51.760;14.300;2023-05-01T08:01:15;101246.34;;;13.22;53.26
17593;BME280;8915;51.760;14.300;2023-05-01T08:03:43;101246.75;;;13.32;56.97
17593;BME280;8915;51.760;14.300;2023-05-01T08:06:09;101247.88;;;13.43;55.02
17593;BME280;8915;51.760;14.300;2023-05-01T08:08:36;101238.91;;;13.48;54.20
17593;BME280;8915;51.760;14.300;2023-05-01T08:11:02;101238.81;;;13.56;51.39
17593;BME280;8915;51.760;14.300;2023-05-01T08:13:28;101247.47;;;13.65;51.48
17593;BME280;8915;51.760;14.300;2023-05-01T08:15:58;101243.28;;;13.76;53.86
17593;BME280;8915;51.760;14.300;2023-05-01T08:18:25;101236.44;;;13.87;53.54
17593;BME280;8915;51.760;14.300;2023-05-01T08:20:52;101244.28;;;13.96;54.47
17593;BME280;8915;51.760;14.300;2023-05-01T08:23:19;101234.66;;;14.03;51.70
17593;BME280;8915;51.760;14.300;2023-05-01T08:25:45;101242.66;;;14.15;50.69
17593;BME280;8915;51.760;14.300;2023-05-01T08:28:15;101241.13;;;14.26;51.58
17593;BME280;8915;51.760;14.300;2023-05-01T08:30:41;101233.47;;;14.37;52.78
17593;BME280;8915;51.760;14.300;2023-05-01T08:33:08;101232.56;;;14.45;50.21
17593;BME280;8915;51.760;14.300;2023-05-01T08:35:34;101238.53;;;14.54;48.58
17593;BME280;8915;51.760;14.300;2023-05-01T08:38:02;101241.06;;;14.62;50.24
17593;BME280;8915;51.760;14.300;2023-05-01T08:40:30;101239.41;;;14.70;49.51
17593;BME280;8915;51.760;14.300;2023-05-01T08:42:59;101235.06;;;14.77;52.21
17593;BME280;8915;51.760;14.300;2023-05-01T08:45:26;101240.97;;;14.86;49.37
17593;BME280;8915;51.760;14.300;2023-05-01T08:47:55;101237.75;;;14.93;46.52
17593;BME280;8915;51.760;14.300;2023-05-01T08:50:23;101232.97;;;14.98;46.77
17593;BME280;8915;51.760;14.300;2023-05-01T08:52:52;101230.84;;;15.04;48.12
17593;BME280;8915;51.760;14.300;2023-05-01T08:55:20;101232.59;;;15.12;49.34
17593;BME280;8915;51.760;14.300;2023-05-01T08:57:47;101230.09;;;15.19;52.64
17593;BME280;8915;51.760;14.300;2023-05-01T09:00:17;101227.66;;;15.26;43.88
17593;BME280;8915;51.760;14.300;2023-05-01T09:02:45;101225.19;;;15.33;50.59
17593;BME280;8915;51.760;14.300;2023-05-01T09:05:12;101221.09;;;15.35;42.32
17593;BME280;8915;51.760;14.300;2023-05-01T09:07:39;101216.63;;;15.39;44.13
17593;BME280;8915;51.760;14.300;2023-05-01T09:10:06;101216.81;;;15.46;47.26
17593;BME280;8915;51.760;14.300;2023-05-01T09:12:34;101213.22;;;15.54;47.53
17593;BME280;8915;51.760;14.300;2023-05-01T09:15:02;101208.38;;;15.60;46.06
17593;BME280;8915;51.760;14.300;2023-05-01T09:17:30;101200.47;;;15.63;47.09
17593;BME280;8915;51.760;14.300;2023-05-01T09:19:57;101200.69;;;15.70;45.57
17593;BME280;8915;51.760;14.300;2023-05-01T09:22:24;101193.53;;;15.74;43.65
17593;BME280;8915;51.760;14.300;2023-05-01T09:24:50;101198.97;;;15.78;43.32
17593;BME280;8915;51.760;14.300;2023-05-01T09:27:17;101183.56;;;15.87;47.01
17593;BME280;8915;51.760;14.300;2023-05-01T09:29:46;101190.59;;;15.95;49.06
17593;BME280;8915;51.760;14.300;2023-05-01T09:32:15;101184.66;;;16.01;48.45
17593;BME280;8915;51.760;14.300;2023-05-01T09:34:42;101181.03;;;16.09;44.52
17593;BME280;8915;51.760;14.300;2023-05-01T09:37:11;101175.09;;;16.16;44.38
17593;BME280;8915;51.760;14.300;2023-05-01T09:39:37;101180.63;;;16.26;44.72
17593;BME280;8915;51.760;14.300;2023-05-01T09:42:04;101176.66;;;16.36;48.98
17593;BME280;8915;51.760;14.300;2023-05-01T09:44:30;101171.50;;;16.43;50.75
17593;BME280;8915;51.760;14.300;2023-05-01T09:46:58;101158.69;;;16.48;45.31
17593;BME280;8915;51.760;14.300;2023-05-01T09:49:43;101159.88;;;16.51;42.95
17593;BME280;8915;51.760;14.300;2023-05-01T09:52:10;101152.34;;;16.56;46.56
17593;BME280;8915;51.760;14.300;2023-05-01T09:54:37;101140.66;;;16.61;42.70
17593;BME280;8915;51.760;14.300;2023-05-01T09:57:03;101152.28;;;16.72;49.80
17593;BME280;8915;51.760;14.300;2023-05-01T09:59:30;101136.75;;;16.77;40.92
17593;BME280;8915;51.760;14.300;2023-05-01T10:02:00;101139.13;;;16.82;45.04
17593;BME280;8915;51.760;14.300;2023-05-01T10:04:29;101126.34;;;16.91;45.93
17593;BME280;8915;51.760;14.300;2023-05-01T10:06:56;101130.25;;;16.97;46.22
17593;BME280;8915;51.760;14.300;2023-05-01T10:09:28;101138.41;;;17.04;42.25
17593;BME280;8915;51.760;14.300;2023-05-01T10:11:55;101127.75;;;17.04;43.40
17593;BME280;8915;51.760;14.300;2023-05-01T10:14:23;101132.00;;;17.09;44.77
17593;BME280;8915;51.760;14.300;2023-05-01T10:16:53;101125.97;;;17.12;42.79
17593;BME280;8915;51.760;14.300;2023-05-01T10:19:23;101115.34;;;17.15;41.52
17593;BME280;8915;51.760;14.300;2023-05-01T10:21:49;101118.13;;;17.22;43.66
17593;BME280;8915;51.760;14.300;2023-05-01T10:24:16;101114.75;;;17.25;42.02
17593;BME280;8915;51.760;14.300;2023-05-01T10:26:43;101112.97;;;17.33;42.58
17593;BME280;8915;51.760;14.300;2023-05-01T10:29:11;101111.88;;;17.37;43.94
17593;BME280;8915;51.760;14.300;2023-05-01T10:31:37;101105.09;;;17.40;40.28
17593;BME280;8915;51.760;14.300;2023-05-01T10:34:04;101108.25;;;17.45;44.27
17593;BME280;8915;51.760;14.300;2023-05-01T10:36:36;101101.03;;;17.49;45.54
17593;BME280;8915;51.760;14.300;2023-05-01T10:39:05;101098.41;;;17.53;40.86
17593;BME280;8915;51.760;14.300;2023-05-01T10:42:00;101086.63;;;17.54;41.44
17593;BME280;8915;51.760;14.300;2023-05-01T10:44:27;101086.69;;;17.57;42.47
17593;BME280;8915;51.760;14.300;2023-05-01T10:46:54;101085.94;;;17.60;41.42
17593;BME280;8915;51.760;14.300;2023-05-01T10:49:20;101087.56;;;17.65;40.94
17593;BME280;8915;51.760;14.300;2023-05-01T10:51:58;101075.03;;;17.69;40.82
17593;BME280;8915;51.760;14.300;2023-05-01T10:54:26;101070.47;;;17.73;42.96
17593;BME280;8915;51.760;14.300;2023-05-01T10:56:54;101071.69;;;17.79;43.37
17593;BME280;8915;51.760;14.300;2023-05-01T10:59:21;101066.44;;;17.82;38.52
17593;BME280;8915;51.760;14.300;2023-05-01T11:01:48;101064.22;;;17.91;41.76
17593;BME280;8915;51.760;14.300;2023-05-01T11:04:45;101062.81;;;17.97;42.91
17593;BME280;8915;51.760;14.300;2023-05-01T11:07:20;101047.25;;;18.06;42.75
17593;BME280;8915;51.760;14.300;2023-05-01T11:09:48;101042.41;;;18.15;41.02
17593;BME280;8915;51.760;14.300;2023-05-01T11:12:47;101031.03;;;18.22;39.55
17593;BME280;8915;51.760;14.300;2023-05-01T11:15:24;101032.22;;;18.28;35.85
17593;BME280;8915;51.760;14.300;2023-05-01T11:17:51;101030.81;;;18.37;41.15
17593;BME280;8915;51.760;14.300;2023-05-01T11:20:45;101035.53;;;18.51;42.63
17593;BME280;8915;51.760;14.300;2023-05-01T11:23:18;101027.63;;;18.61;42.64
17593;BME280;8915;51.760;14.300;2023-05-01T11:25:46;101021.19;;;18.69;38.69
17593;BME280;8915;51.760;14.300;2023-05-01T11:28:18;101016.75;;;18.80;43.13
17593;BME280;8915;51.760;14.300;2023-05-01T11:30:45;101005.28;;;18.83;38.79
17593;BME280;8915;51.760;14.300;2023-05-01T11:33:12;101004.56;;;18.90;42.18
17593;BME280;8915;51.760;14.300;2023-05-01T11:35:41;100997.34;;;18.94;35.73
17593;BME280;8915;51.760;14.300;2023-05-01T11:38:15;100994.34;;;19.02;39.21
17593;BME280;8915;51.760;14.300;2023-05-01T11:40:44;100989.41;;;19.08;38.17
17593;BME280;8915;51.760;14.300;2023-05-01T11:43:10;100981.44;;;19.15;37.33
17593;BME280;8915;51.760;14.300;2023-05-01T11:45:37;100977.63;;;19.19;34.94
17593;BME280;8915;51.760;14.300;2023-05-01T11:48:13;100976.94;;;19.26;37.58
17593;BME280;8915;51.760;14.300;2023-05-01T11:50:40;100969.72;;;19.33;35.04
17593;BME280;8915;51.760;14.300;2023-05-01T11:53:10;100966.69;;;19.38;38.12
17593;BME280;8915;51.760;14.300;2023-05-01T11:55:37;100969.03;;;19.47;35.44
17593;BME280;8915;51.760;14.300;2023-05-01T11:58:05;100967.88;;;19.48;35.09
17593;BME280;8915;51.760;14.300;2023-05-01T12:00:33;100962.88;;;19.46;38.24
17593;BME280;8915;51.760;14.300;2023-05-01T12:03:02;100957.94;;;19.45;34.58
17593;BME280;8915;51.760;14.300;2023-05-01T12:05:31;100952.59;;;19.52;41.65
17593;BME280;8915;51.760;14.300;2023-05-01T12:08:10;100957.22;;;19.62;36.53
17593;BME280;8915;51.760;14.300;2023-05-01T12:10:38;100948.09;;;19.73;37.32
17593;BME280;8915;51.760;14.300;2023-05-01T12:13:07;100953.09;;;19.82;34.93
17593;BME280;8915;51.760;14.300;2023-05-01T12:15:35;100933.97;;;19.87;35.24
17593;BME280;8915;51.760;14.300;2023-05-01T12:18:02;100932.06;;;19.91;34.00
17593;BME280;8915;51.760;14.300;2023-05-01T12:20:40;100927.88;;;19.97;33.81
17593;BME280;8915;51.760;14.300;2023-05-01T12:23:09;100922.91;;;20.02;35.89
17593;BME280;8915;51.760;14.300;2023-05-01T12:25:36;100918.31;;;20.03;35.01
17593;BME280;8915;51.760;14.300;2023-05-01T12:28:09;100913.75;;;20.07;35.99
17593;BME280;8915;51.760;14.300;2023-05-01T12:30:36;100907.59;;;20.06;33.31
17593;BME280;8915;51.760;14.300;2023-05-01T12:33:07;100901.44;;;20.06;32.18
17593;BME280;8915;51.760;14.300;2023-05-01T12:35:34;100904.19;;;20.09;35.41
17593;BME280;8915;51.760;14.300;2023-05-01T12:38:09;100903.81;;;20.18;32.21
17593;BME280;8915;51.760;14.300;2023-05-01T12:40:35;100893.47;;;20.23;33.04
17593;BME280;8915;51.760;14.300;2023-05-01T12:43:03;100887.34;;;20.30;32.62
17593;BME280;8915;51.760;14.300;2023-05-01T12:45:37;100880.06;;;20.37;36.45
17593;BME280;8915;51.760;14.300;2023-05-01T12:48:09;100876.22;;;20.38;32.60
17593;BME280;8915;51.760;14.300;2023-05-01T12:50:37;100875.47;;;20.38;33.27
17593;BME280;8915;51.760;14.300;2023-05-01T12:53:03;100873.16;;;20.40;35.37
17593;BME280;8915;51.760;14.300;2023-05-01T12:55:31;100878.16;;;20.45;36.05
17593;BME280;8915;51.760;14.300;2023-05-01T12:58:00;100869.34;;;20.48;33.90
17593;BME280;8915;51.760;14.300;2023-05-01T13:00:26;100870.84;;;20.52;34.86
17593;BME280;8915;51.760;14.300;2023-05-01T13:03:01;100863.94;;;20.58;34.24